Seattle, Washington
Traffic Map
Current Weather Conditions
Seattle, Washington
Overcast
Overcast
35°
Feels Like: 31°
Wind Chill: 31° Ceiling: 9000
Heat Index: 35° Visibility: 10mi
Dew Point: 31° Wind: 5mph
Humidity: 85% Direction: 150° (SSE)
Pressure: 30.48in Gusts: 0mph
Raw Report DataKBFI 121553Z AUTO 15004KT 10SM OVC090 02/M01 A3048 RMK AO2 SLP322 T00171006
Traffic Incident Summary
Active as of:
Severity:
Category:
InformationThere was an issue retrieving the traffic information for this location. Please try a different location or try again shortly.
Advertisements